createdAt,value
2023-04-30T00:01:21.174Z,4.80
2023-04-30T00:03:49.384Z,5.55
2023-04-30T00:06:17.609Z,5.85
2023-04-30T00:08:46.085Z,5.18
2023-04-30T00:11:15.569Z,6.15
2023-04-30T00:13:44.125Z,5.85
2023-04-30T00:16:12.271Z,6.00
2023-04-30T00:18:40.530Z,6.20
2023-04-30T00:21:08.658Z,6.45
2023-04-30T00:23:37.151Z,5.82
2023-04-30T00:26:05.294Z,5.30
2023-04-30T00:28:34.801Z,6.15
2023-04-30T00:31:03.294Z,6.15
2023-04-30T00:33:31.413Z,5.90
2023-04-30T00:35:59.790Z,5.90
2023-04-30T00:38:28.087Z,5.97
2023-04-30T00:40:56.334Z,5.55
2023-04-30T00:43:24.471Z,6.43
2023-04-30T00:45:54.037Z,6.45
2023-04-30T00:48:22.509Z,6.03
2023-04-30T00:50:50.668Z,6.40
2023-04-30T00:53:20.177Z,6.63
2023-04-30T00:55:50.343Z,6.80
2023-04-30T00:58:18.459Z,6.90
2023-04-30T01:00:47.742Z,6.72
2023-04-30T01:03:17.613Z,7.07
2023-04-30T01:05:45.859Z,6.47
2023-04-30T01:08:14.308Z,7.10
2023-04-30T01:10:53.243Z,7.03
2023-04-30T01:13:30.863Z,6.88
2023-04-30T01:16:14.417Z,7.30
2023-04-30T01:18:52.876Z,6.68
2023-04-30T01:21:21.372Z,6.78
2023-04-30T01:24:19.609Z,7.22
2023-04-30T01:27:07.828Z,7.13
2023-04-30T01:29:40.531Z,7.13
2023-04-30T01:32:08.726Z,8.00
2023-04-30T01:34:36.878Z,7.38
2023-04-30T01:37:20.458Z,6.63
2023-04-30T01:40:14.037Z,6.72
2023-04-30T01:42:53.862Z,7.60
2023-04-30T01:45:45.096Z,7.35
2023-04-30T01:48:29.100Z,7.53
2023-04-30T01:51:09.958Z,7.85
2023-04-30T01:53:46.215Z,6.32
2023-04-30T01:56:22.646Z,6.55
2023-04-30T01:58:53.713Z,6.70
2023-04-30T02:01:32.049Z,7.25
2023-04-30T02:04:01.429Z,7.13
2023-04-30T02:06:30.267Z,6.85
2023-04-30T02:09:03.253Z,6.70
2023-04-30T02:11:31.990Z,7.70
2023-04-30T02:14:00.152Z,6.72
2023-04-30T02:16:30.778Z,6.97
2023-04-30T02:18:59.030Z,7.57
2023-04-30T02:21:28.179Z,7.80
2023-04-30T02:23:56.302Z,7.55
2023-04-30T02:26:24.447Z,7.40
2023-04-30T02:28:52.599Z,7.13
2023-04-30T02:31:21.246Z,7.72
2023-04-30T02:33:50.840Z,6.93
2023-04-30T02:36:18.975Z,7.65
2023-04-30T02:38:47.203Z,8.10
2023-04-30T02:41:15.374Z,8.38
2023-04-30T02:43:43.528Z,8.15
2023-04-30T02:46:11.745Z,7.65
2023-04-30T02:48:40.078Z,7.35
2023-04-30T02:51:09.751Z,8.05
2023-04-30T02:53:37.956Z,7.43
2023-04-30T02:56:09.351Z,7.55
2023-04-30T02:58:37.461Z,7.35
2023-04-30T03:01:06.549Z,7.32
2023-04-30T03:03:34.822Z,7.70
2023-04-30T03:06:03.080Z,7.88
2023-04-30T03:08:32.688Z,7.72
2023-04-30T03:11:00.920Z,7.53
2023-04-30T03:13:29.293Z,7.05
2023-04-30T03:16:01.066Z,6.82
2023-04-30T03:18:30.167Z,6.00
2023-04-30T03:20:58.654Z,7.57
2023-04-30T03:23:29.425Z,7.22
2023-04-30T03:25:58.874Z,6.50
2023-04-30T03:28:27.096Z,7.32
2023-04-30T03:30:55.240Z,7.43
2023-04-30T03:33:23.512Z,7.72
2023-04-30T03:35:51.911Z,7.85
2023-04-30T03:38:20.096Z,7.13
2023-04-30T03:40:48.297Z,7.35
2023-04-30T03:43:17.800Z,7.53
2023-04-30T03:45:46.453Z,7.57
2023-04-30T03:48:14.844Z,7.28
2023-04-30T03:50:42.978Z,7.32
2023-04-30T03:53:11.156Z,7.85
2023-04-30T03:55:39.853Z,7.28
2023-04-30T03:58:08.838Z,8.02
2023-04-30T04:00:38.750Z,8.40
2023-04-30T04:03:07.451Z,8.02
2023-04-30T04:05:35.673Z,7.90
2023-04-30T04:08:03.766Z,7.75
2023-04-30T04:10:31.965Z,7.82
2023-04-30T04:13:00.305Z,8.27
2023-04-30T04:15:28.529Z,8.93
2023-04-30T04:17:58.189Z,8.05
2023-04-30T04:20:27.361Z,8.35
2023-04-30T04:22:55.641Z,8.40
2023-04-30T04:25:25.153Z,7.72
2023-04-30T04:27:53.417Z,9.10
2023-04-30T04:30:21.755Z,8.38
2023-04-30T04:32:53.819Z,8.38
2023-04-30T04:35:23.485Z,8.88
2023-04-30T04:37:51.647Z,10.35
2023-04-30T04:40:19.926Z,8.73
2023-04-30T04:42:52.274Z,9.38
2023-04-30T04:45:20.850Z,10.32
2023-04-30T04:47:50.809Z,9.40
2023-04-30T04:50:19.676Z,9.30
2023-04-30T04:52:49.271Z,10.85
2023-04-30T04:55:17.654Z,10.43
2023-04-30T04:57:45.822Z,10.68
2023-04-30T05:00:14.577Z,10.82
2023-04-30T05:02:43.202Z,10.05
2023-04-30T05:05:11.996Z,9.95
2023-04-30T05:07:40.672Z,9.95
2023-04-30T05:10:12.004Z,10.23
2023-04-30T05:12:40.266Z,9.60
2023-04-30T05:15:09.729Z,10.23
2023-04-30T05:17:37.978Z,9.88
2023-04-30T05:20:08.664Z,9.75
2023-04-30T05:22:36.788Z,10.10
2023-04-30T05:25:05.879Z,9.32
2023-04-30T05:27:36.105Z,9.52
2023-04-30T05:30:04.478Z,9.52
2023-04-30T05:32:32.627Z,9.27
2023-04-30T05:35:00.940Z,9.20
2023-04-30T05:37:29.106Z,9.10
2023-04-30T05:39:57.369Z,10.55
2023-04-30T05:42:25.626Z,10.00
2023-04-30T05:44:55.566Z,9.63
2023-04-30T05:47:23.660Z,9.90
2023-04-30T05:49:51.757Z,10.77
2023-04-30T05:52:19.886Z,9.25
2023-04-30T05:54:50.095Z,10.27
2023-04-30T05:57:18.483Z,10.65
2023-04-30T05:59:46.645Z,11.05
2023-04-30T06:02:16.414Z,9.98
2023-04-30T06:04:44.625Z,9.77
2023-04-30T06:07:13.194Z,10.52
2023-04-30T06:09:41.332Z,10.13
2023-04-30T06:12:09.535Z,10.32
2023-04-30T06:14:37.907Z,9.75
2023-04-30T06:17:06.021Z,8.75
2023-04-30T06:19:35.491Z,9.30
2023-04-30T06:22:03.593Z,10.40
2023-04-30T06:24:31.807Z,8.68
2023-04-30T06:26:59.971Z,9.98
2023-04-30T06:29:28.105Z,10.52
2023-04-30T06:31:57.516Z,9.77
2023-04-30T06:34:25.729Z,10.18
2023-04-30T06:36:55.275Z,10.65
2023-04-30T06:39:23.458Z,9.85
2023-04-30T06:41:52.012Z,9.55
2023-04-30T06:44:22.005Z,10.73
2023-04-30T06:46:50.119Z,11.20
2023-04-30T06:49:18.257Z,10.05
2023-04-30T06:51:46.384Z,8.93
2023-04-30T06:54:15.940Z,9.90
2023-04-30T06:56:45.087Z,9.10
2023-04-30T06:59:13.247Z,10.18
2023-04-30T07:01:41.859Z,8.60
2023-04-30T07:04:10.029Z,9.20
2023-04-30T07:06:38.267Z,7.93
2023-04-30T07:09:07.104Z,9.18
2023-04-30T07:11:36.585Z,9.65
2023-04-30T07:14:04.696Z,8.88
2023-04-30T07:16:34.158Z,9.02
2023-04-30T07:19:02.296Z,8.55
2023-04-30T07:21:32.767Z,8.57
2023-04-30T07:24:00.987Z,8.35
2023-04-30T07:26:29.128Z,8.38
2023-04-30T07:28:58.625Z,8.05
2023-04-30T07:31:27.895Z,7.28
2023-04-30T07:33:56.260Z,7.68
2023-04-30T07:36:24.540Z,8.07
2023-04-30T07:38:52.861Z,7.22
2023-04-30T07:41:21.799Z,7.18
2023-04-30T07:43:49.911Z,7.63
2023-04-30T07:46:19.623Z,7.30
2023-04-30T07:48:47.784Z,6.97
2023-04-30T07:51:15.977Z,6.82
2023-04-30T07:53:44.093Z,6.68
2023-04-30T07:56:12.190Z,7.20
2023-04-30T07:58:40.374Z,6.88
2023-04-30T08:01:08.755Z,7.13
2023-04-30T08:03:38.313Z,6.72
2023-04-30T08:06:07.064Z,6.80
2023-04-30T08:08:35.195Z,6.25
2023-04-30T08:11:03.342Z,7.05
2023-04-30T08:13:31.829Z,5.80
2023-04-30T08:15:59.930Z,6.50
2023-04-30T08:18:28.120Z,6.13
2023-04-30T08:20:57.608Z,6.85
2023-04-30T08:23:25.710Z,5.38
2023-04-30T08:25:54.155Z,5.60
2023-04-30T08:28:22.372Z,5.25
2023-04-30T08:30:50.487Z,6.45
2023-04-30T08:33:18.797Z,5.38
2023-04-30T08:35:47.081Z,5.38
2023-04-30T08:38:16.538Z,5.28
2023-04-30T08:40:53.819Z,4.90
2023-04-30T08:43:22.918Z,4.80
2023-04-30T08:45:53.103Z,5.35
2023-04-30T08:48:26.113Z,5.30
2023-04-30T08:50:54.296Z,4.55
2023-04-30T08:53:23.868Z,4.40
2023-04-30T08:55:51.981Z,5.38
2023-04-30T08:58:20.127Z,5.25
2023-04-30T09:00:48.521Z,4.20
2023-04-30T09:03:17.214Z,4.03
2023-04-30T09:05:46.057Z,3.70
2023-04-30T09:08:20.296Z,4.10
2023-04-30T09:10:49.830Z,4.15
2023-04-30T09:13:18.050Z,3.70
2023-04-30T09:15:46.751Z,3.95
2023-04-30T09:18:18.004Z,3.95
2023-04-30T09:20:58.412Z,4.32
2023-04-30T09:23:27.073Z,2.90
2023-04-30T09:25:57.515Z,3.45
2023-04-30T09:28:27.372Z,3.90
2023-04-30T09:30:58.014Z,3.60
2023-04-30T09:33:26.272Z,3.83
2023-04-30T09:35:54.625Z,3.72
2023-04-30T09:38:31.328Z,3.60
2023-04-30T09:41:02.906Z,3.85
2023-04-30T09:43:31.831Z,3.80
2023-04-30T09:46:00.953Z,4.28
2023-04-30T09:48:29.858Z,4.38
2023-04-30T09:50:58.270Z,3.65
2023-04-30T09:53:29.080Z,4.05
2023-04-30T09:56:07.919Z,6.03
2023-04-30T09:58:39.169Z,5.35
2023-04-30T10:01:11.205Z,4.57
2023-04-30T10:03:43.711Z,4.25
2023-04-30T10:06:15.629Z,3.88
2023-04-30T10:08:46.678Z,3.58
2023-04-30T10:11:21.463Z,3.40
2023-04-30T10:13:56.399Z,3.35
2023-04-30T10:16:41.343Z,3.15
2023-04-30T10:19:21.000Z,3.00
2023-04-30T10:21:49.214Z,2.67
2023-04-30T10:24:20.587Z,2.70
2023-04-30T10:26:51.038Z,3.08
2023-04-30T10:29:19.953Z,3.15
2023-04-30T10:31:50.809Z,2.42
2023-04-30T10:34:33.272Z,2.53
2023-04-30T10:37:09.508Z,2.80
2023-04-30T10:39:40.039Z,2.70
2023-04-30T10:42:12.125Z,3.08
2023-04-30T10:44:41.102Z,2.30
2023-04-30T10:47:10.934Z,2.40
2023-04-30T10:49:39.138Z,2.45
2023-04-30T10:52:07.692Z,2.28
2023-04-30T10:54:38.328Z,2.90
2023-04-30T10:57:17.577Z,2.20
2023-04-30T10:59:53.509Z,2.53
2023-04-30T11:02:22.357Z,2.70
2023-04-30T11:05:14.771Z,2.63
2023-04-30T11:07:58.064Z,3.05
2023-04-30T11:10:28.472Z,2.53
2023-04-30T11:12:58.932Z,2.80
2023-04-30T11:15:36.137Z,2.78
2023-04-30T11:18:04.661Z,2.03
2023-04-30T11:20:33.008Z,2.60
2023-04-30T11:23:12.736Z,3.05
2023-04-30T11:25:42.496Z,2.55
2023-04-30T11:28:17.858Z,2.30
2023-04-30T11:30:54.260Z,2.30
2023-04-30T11:33:24.136Z,2.60
2023-04-30T11:35:53.432Z,2.38
2023-04-30T11:38:23.694Z,2.53
2023-04-30T11:40:54.058Z,2.50
2023-04-30T11:43:28.826Z,2.97
2023-04-30T11:46:18.340Z,2.45
2023-04-30T11:53:17.969Z,2.95
2023-04-30T11:55:46.275Z,3.13
2023-04-30T11:58:14.426Z,2.63
2023-04-30T12:00:44.143Z,2.30
2023-04-30T12:03:16.159Z,3.15
2023-04-30T12:05:44.448Z,2.85
2023-04-30T12:08:12.981Z,2.53
2023-04-30T12:10:41.277Z,3.03
2023-04-30T12:13:09.468Z,2.50
2023-04-30T12:15:39.570Z,2.53
2023-04-30T12:18:15.549Z,2.40
2023-04-30T12:20:44.561Z,2.60
2023-04-30T12:23:12.808Z,2.72
2023-04-30T12:25:44.244Z,2.50
2023-04-30T12:28:12.850Z,2.47
2023-04-30T12:30:43.512Z,2.70
2023-04-30T12:33:13.590Z,2.47
2023-04-30T12:35:44.695Z,2.65
2023-04-30T12:38:17.533Z,2.80
2023-04-30T12:40:49.627Z,2.50
2023-04-30T12:43:19.193Z,2.60
2023-04-30T12:45:51.510Z,2.40
2023-04-30T12:48:24.285Z,2.72
2023-04-30T12:51:04.922Z,1.88
2023-04-30T12:53:33.485Z,2.35
2023-04-30T12:56:14.469Z,2.60
2023-04-30T12:58:45.497Z,2.22
2023-04-30T13:01:18.094Z,2.50
2023-04-30T13:03:48.220Z,2.22
2023-04-30T13:06:16.840Z,2.33
2023-04-30T13:08:58.074Z,2.33
2023-04-30T13:11:27.883Z,2.20
2023-04-30T13:13:56.597Z,2.20
2023-04-30T13:16:25.882Z,2.22
2023-04-30T13:18:55.930Z,2.10
2023-04-30T13:21:25.783Z,1.80
2023-04-30T13:23:55.299Z,2.00
2023-04-30T13:26:26.302Z,1.77
2023-04-30T13:28:54.460Z,2.03
2023-04-30T13:31:23.177Z,1.80
2023-04-30T13:33:51.899Z,2.20
2023-04-30T13:36:21.464Z,2.17
2023-04-30T13:38:49.865Z,1.85
2023-04-30T13:41:18.071Z,1.90
2023-04-30T13:43:47.597Z,1.75
2023-04-30T13:46:16.640Z,1.63
2023-04-30T13:48:48.066Z,1.90
2023-04-30T13:51:16.284Z,1.80
2023-04-30T13:53:45.726Z,1.80
2023-04-30T13:56:15.328Z,1.92
2023-04-30T13:58:43.464Z,2.00
2023-04-30T14:01:12.000Z,1.73
2023-04-30T14:03:40.314Z,1.52
2023-04-30T14:06:08.560Z,1.70
2023-04-30T14:08:36.987Z,1.83
2023-04-30T14:11:06.653Z,1.92
2023-04-30T14:13:34.848Z,1.60
2023-04-30T14:16:03.099Z,1.63
2023-04-30T14:18:31.558Z,1.50
2023-04-30T14:20:59.717Z,1.60
2023-04-30T14:23:29.059Z,1.50
2023-04-30T14:25:57.432Z,1.50
2023-04-30T14:28:26.892Z,1.38
2023-04-30T14:30:55.008Z,1.33
2023-04-30T14:33:23.146Z,1.17
2023-04-30T14:35:51.655Z,1.50
2023-04-30T14:38:20.637Z,1.35
2023-04-30T14:40:48.808Z,1.40
2023-04-30T14:43:17.274Z,1.25
2023-04-30T14:45:46.978Z,1.35
2023-04-30T14:48:15.191Z,1.40
2023-04-30T14:50:44.527Z,1.38
2023-04-30T14:53:13.149Z,1.30
2023-04-30T14:55:41.876Z,1.25
2023-04-30T14:58:10.029Z,1.77
2023-04-30T15:00:38.283Z,1.77
2023-04-30T15:03:07.900Z,1.20
2023-04-30T15:05:36.647Z,1.20
2023-04-30T15:08:05.208Z,1.48
2023-04-30T15:10:33.384Z,1.45
2023-04-30T15:13:01.705Z,1.27
2023-04-30T15:15:30.705Z,1.50
2023-04-30T15:18:00.174Z,1.60
2023-04-30T15:20:29.878Z,1.70
2023-04-30T15:22:58.202Z,2.30
2023-04-30T15:25:26.680Z,3.97
2023-04-30T15:27:55.916Z,2.30
2023-04-30T15:30:24.021Z,1.85
2023-04-30T15:32:52.446Z,1.50
2023-04-30T15:35:20.661Z,1.40
2023-04-30T15:37:50.989Z,1.48
2023-04-30T15:40:19.140Z,1.77
2023-04-30T15:42:47.276Z,1.63
2023-04-30T15:45:16.173Z,1.27
2023-04-30T15:47:44.578Z,1.23
2023-04-30T15:50:13.237Z,1.25
2023-04-30T15:52:41.671Z,1.40
2023-04-30T15:55:11.580Z,1.10
2023-04-30T15:57:39.793Z,1.45
2023-04-30T16:00:10.631Z,1.33
2023-04-30T16:02:42.109Z,1.33
2023-04-30T16:05:11.683Z,1.08
2023-04-30T16:07:42.432Z,1.33
2023-04-30T16:10:14.550Z,1.65
2023-04-30T16:12:42.856Z,2.58
2023-04-30T16:15:13.609Z,2.80
2023-04-30T16:17:41.943Z,1.77
2023-04-30T16:20:12.052Z,1.48
2023-04-30T16:22:40.335Z,1.20
2023-04-30T16:25:10.971Z,1.27
2023-04-30T16:27:40.683Z,1.05
2023-04-30T16:30:10.660Z,1.45
2023-04-30T16:32:38.988Z,1.60
2023-04-30T16:35:09.439Z,1.48
2023-04-30T16:37:37.641Z,1.48
2023-04-30T16:40:07.511Z,1.02
2023-04-30T16:42:36.298Z,1.23
2023-04-30T16:45:06.956Z,1.50
2023-04-30T16:47:35.166Z,1.20
2023-04-30T16:50:03.360Z,1.52
2023-04-30T16:52:33.158Z,1.42
2023-04-30T16:55:01.468Z,1.95
2023-04-30T16:57:29.588Z,1.92
2023-04-30T16:59:57.896Z,1.52
2023-04-30T17:02:27.787Z,2.00
2023-04-30T17:04:57.536Z,1.90
2023-04-30T17:07:27.310Z,3.45
2023-04-30T17:09:55.640Z,4.00
2023-04-30T17:12:24.724Z,2.20
2023-04-30T17:14:53.030Z,2.75
2023-04-30T17:17:21.283Z,2.17
2023-04-30T17:19:50.845Z,2.33
2023-04-30T17:22:20.126Z,1.88
2023-04-30T17:24:48.653Z,2.20
2023-04-30T17:27:18.541Z,1.90
2023-04-30T17:29:46.833Z,1.77
2023-04-30T17:32:17.504Z,1.95
2023-04-30T17:34:46.214Z,2.72
2023-04-30T17:37:21.724Z,2.10
2023-04-30T17:39:49.985Z,2.00
2023-04-30T17:42:18.565Z,1.80
2023-04-30T17:44:46.858Z,2.15
2023-04-30T17:47:16.306Z,1.80
2023-04-30T17:49:44.546Z,1.60
2023-04-30T17:52:13.431Z,1.55
2023-04-30T17:54:43.015Z,4.57
2023-04-30T17:57:11.383Z,3.55
2023-04-30T17:59:40.796Z,2.58
2023-04-30T18:02:09.680Z,1.25
2023-04-30T18:04:37.836Z,1.40
2023-04-30T18:07:08.045Z,1.63
2023-04-30T18:09:36.165Z,1.40
2023-04-30T18:12:06.408Z,1.25
2023-04-30T18:14:34.678Z,1.73
2023-04-30T18:17:02.831Z,2.00
2023-04-30T18:19:31.888Z,1.88
2023-04-30T18:22:00.496Z,1.70
2023-04-30T18:24:28.734Z,1.75
2023-04-30T18:26:57.145Z,1.70
2023-04-30T18:29:27.114Z,1.95
2023-04-30T18:31:56.531Z,1.73
2023-04-30T18:34:28.036Z,1.67
2023-04-30T18:36:56.516Z,2.10
2023-04-30T18:39:24.674Z,1.77
2023-04-30T18:41:52.987Z,1.67
2023-04-30T18:44:32.264Z,1.85
2023-04-30T18:47:00.512Z,2.05
2023-04-30T18:49:28.704Z,2.03
2023-04-30T18:51:57.193Z,1.70
2023-04-30T18:54:25.516Z,2.17
2023-04-30T18:56:53.758Z,2.08
2023-04-30T18:59:22.776Z,2.53
2023-04-30T19:01:52.722Z,3.20
2023-04-30T19:04:20.951Z,3.35
2023-04-30T19:06:54.463Z,3.50
2023-04-30T19:09:22.789Z,2.88
2023-04-30T19:11:54.147Z,2.50
2023-04-30T19:14:22.364Z,2.22
2023-04-30T19:16:52.216Z,2.45
2023-04-30T19:19:20.425Z,2.15
2023-04-30T19:21:48.598Z,2.25
2023-04-30T19:24:16.762Z,2.22
2023-04-30T19:26:48.435Z,2.00
2023-04-30T19:29:16.693Z,1.65
2023-04-30T19:31:45.062Z,1.85
2023-04-30T19:34:14.829Z,1.83
2023-04-30T19:36:44.033Z,2.25
2023-04-30T19:39:12.501Z,2.40
2023-04-30T19:41:40.986Z,2.13
2023-04-30T19:44:10.123Z,2.45
2023-04-30T19:46:38.515Z,2.15
2023-04-30T19:49:08.117Z,2.38
2023-04-30T19:51:37.632Z,1.63
2023-04-30T19:54:07.429Z,2.22
2023-04-30T19:56:35.964Z,1.98
2023-04-30T19:59:04.774Z,2.47
2023-04-30T20:01:33.035Z,2.10
2023-04-30T20:04:01.443Z,2.40
2023-04-30T20:06:29.965Z,2.35
2023-04-30T20:09:02.071Z,2.70
2023-04-30T20:11:30.353Z,2.58
2023-04-30T20:13:58.663Z,3.00
2023-04-30T20:16:27.165Z,2.60
2023-04-30T20:18:55.481Z,2.70
2023-04-30T20:21:24.905Z,2.70
2023-04-30T20:23:53.274Z,2.90
2023-04-30T20:26:25.582Z,3.00
2023-04-30T20:28:53.849Z,3.58
2023-04-30T20:31:22.392Z,3.03
2023-04-30T20:33:50.644Z,4.80
2023-04-30T20:36:19.477Z,4.93
2023-04-30T20:38:47.932Z,5.53
2023-04-30T20:41:16.061Z,6.20
2023-04-30T20:43:45.667Z,6.68
2023-04-30T20:46:14.752Z,6.35
2023-04-30T20:48:42.933Z,5.28
2023-04-30T20:51:11.322Z,5.13
2023-04-30T20:53:39.634Z,4.57
2023-04-30T20:56:07.954Z,5.03
2023-04-30T20:58:36.875Z,4.22
2023-04-30T21:01:06.861Z,4.43
2023-04-30T21:03:35.107Z,4.18
2023-04-30T21:06:03.369Z,3.83
2023-04-30T21:08:31.499Z,4.05
2023-04-30T21:10:59.750Z,4.03
2023-04-30T21:13:28.558Z,3.67
2023-04-30T21:15:57.026Z,3.15
2023-04-30T21:18:27.596Z,4.43
2023-04-30T21:21:02.941Z,3.73
2023-04-30T21:23:32.460Z,3.35
2023-04-30T21:26:00.656Z,3.08
2023-04-30T21:28:29.068Z,3.00
2023-04-30T21:30:57.369Z,3.17
2023-04-30T21:33:27.006Z,3.07
2023-04-30T21:35:55.684Z,3.72
2023-04-30T21:38:23.826Z,5.10
2023-04-30T21:40:52.305Z,5.35
2023-04-30T21:43:20.442Z,4.80
2023-04-30T21:45:48.867Z,4.63
2023-04-30T21:48:17.656Z,4.45
2023-04-30T21:50:48.438Z,4.32
2023-04-30T21:53:18.368Z,3.08
2023-04-30T21:55:48.144Z,3.13
2023-04-30T21:58:16.341Z,3.40
2023-04-30T22:00:44.678Z,3.58
2023-04-30T22:03:15.291Z,3.35
2023-04-30T22:05:44.141Z,3.75
2023-04-30T22:08:13.650Z,2.60
2023-04-30T22:10:41.921Z,2.97
2023-04-30T22:13:10.073Z,3.03
2023-04-30T22:15:47.845Z,2.97
2023-04-30T22:18:17.160Z,2.75
2023-04-30T22:20:45.639Z,2.80
2023-04-30T22:23:15.649Z,2.60
2023-04-30T22:25:44.188Z,2.58
2023-04-30T22:28:12.382Z,1.75
2023-04-30T22:30:40.684Z,2.53
2023-04-30T22:33:08.869Z,2.35
2023-04-30T22:35:39.150Z,1.83
2023-04-30T22:38:08.504Z,2.13
2023-04-30T22:40:40.476Z,2.28
2023-04-30T22:43:10.510Z,2.23
2023-04-30T22:45:40.514Z,1.98
2023-04-30T22:48:10.433Z,2.17
2023-04-30T22:50:39.016Z,2.30
2023-04-30T22:53:07.443Z,1.70
2023-04-30T22:55:37.436Z,1.85
2023-04-30T22:58:05.550Z,1.93
2023-04-30T23:00:33.740Z,1.52
2023-04-30T23:03:02.082Z,2.00
2023-04-30T23:05:30.182Z,2.00
2023-04-30T23:07:58.313Z,1.85
2023-04-30T23:10:26.565Z,1.77
2023-04-30T23:12:56.569Z,2.00
2023-04-30T23:15:24.920Z,2.13
2023-04-30T23:17:54.291Z,1.73
2023-04-30T23:20:23.472Z,2.07
2023-04-30T23:22:51.652Z,1.80
2023-04-30T23:25:20.090Z,2.50
2023-04-30T23:27:48.284Z,1.95
2023-04-30T23:30:17.979Z,2.47
2023-04-30T23:32:46.567Z,2.47
2023-04-30T23:35:14.887Z,2.22
2023-04-30T23:37:42.972Z,2.33
2023-04-30T23:40:15.072Z,2.55
2023-04-30T23:42:43.689Z,1.97
2023-04-30T23:45:12.158Z,1.75
2023-04-30T23:47:41.962Z,2.20
2023-04-30T23:50:11.791Z,2.13
2023-04-30T23:52:39.986Z,2.83
2023-04-30T23:55:10.057Z,2.73
2023-04-30T23:57:38.207Z,2.40
